M I D A S
Marine Information and Data Acquisition System
Tripno 177 of the Zeeleeuw from 2001-11-12 07:05:00 to 2001-11-14 18:20:00
Back to CruiseResearch ActivitiesStationsMapUnderway DataData graphs

EquipmentUnitsComment
TimeDGPSUTC
LatitudeDGPSDM.mWGS84
LongitudeDGPSDM.mWGS84
HeadingGyrodeg 
SOGDGPSknotsSpeed over ground
COGDGPSdegCourse over ground
DepthEcho soundermeters200 kHz
Missing or incorrect values are displayed as -999
Navigation data collected by the RV Zeeleeuw from 2001-11-12 07:05:00 to 2001-11-14 18:20:00
Time Latitude Longitude Heading SOG COG Depth
2001-11-12 08:48:13 51°13.69 2°55.907 130.5   348.3 -999
2001-11-12 08:49:13 51°13.689 2°55.906 130   299 -999
2001-11-12 08:50:13 51°13.689 2°55.906 130   29.3 -999
2001-11-12 08:51:13 51°13.69 2°55.906 130   26.8 -999
2001-11-12 08:52:13 51°13.69 2°55.907 130   277.1 -999
2001-11-12 08:53:13 51°13.69 2°55.907 130   46.5 -999
2001-11-12 08:54:13 51°13.69 2°55.906 130   309.2 -999
2001-11-12 08:55:13 51°13.69 2°55.906 130   342.1 -999
2001-11-12 08:56:11 51°13.69 2°55.907 130   335 10.2
2001-11-12 08:57:08 51°13.69 2°55.907 130   39 10.1
2001-11-12 08:58:08 51°13.69 2°55.907 130   39.2 10.3
2001-11-12 08:59:08 51°13.69 2°55.907 130.2   32 10.2
2001-11-12 09:00:09 51°13.69 2°55.907 129.8   348.3 10.4
2001-11-12 09:01:08 51°13.689 2°55.907 129.8   53.8 10.4
2001-11-12 09:02:12 51°13.689 2°55.906 129.8   27 9.9
2001-11-12 09:03:12 51°13.689 2°55.906 130   247.7 10.3
2001-11-12 09:04:12 51°13.688 2°55.906 119.5 0.1 209.6 10.6
2001-11-12 09:05:12 51°13.687 2°55.905 112.5 0.1 190.5 10.8
2001-11-12 09:06:12 51°13.685 2°55.905 97.7 0.1 217.4 11.1
2001-11-12 09:07:14 51°13.687 2°55.86 85 2.9 269.1 -999
2001-11-12 09:08:13 51°13.681 2°55.796 70.3 2.1 257 13.6
2001-11-12 09:09:13 51°13.672 2°55.757 51.2 0.5 271.8 13.6
2001-11-12 09:10:13 51°13.698 2°55.759 351.3 2.1 349.6 16.7
2001-11-12 09:11:13 51°13.703 2°55.755 343 0.3 317.9 16.2
2001-11-12 09:12:13 51°13.706 2°55.75 338 0.3 320.3 16
2001-11-12 09:13:13 51°13.711 2°55.743 326 0.5 320.5 15.5
2001-11-12 09:14:13 51°13.726 2°55.722 332.5 2.2 325.9 13.3
2001-11-12 09:15:13 51°13.809 2°55.652 338.3 7.6 334.2 13.2
2001-11-12 09:16:13 51°13.94 2°55.558 340.5 8.7 336.6 13
2001-11-12 09:17:13 51°14.068 2°55.463 338.2 8.5 334.8 12.6
2001-11-12 09:18:13 51°14.189 2°55.354 328.3 8.3 326 12.7
2001-11-12 09:19:12 51°14.291 2°55.208 316.2 8.5 313.8 12.8
2001-11-12 09:20:13 51°14.382 2°55.034 312.8 8.4 311.9 13.1
2001-11-12 09:21:13 51°14.518 2°54.925 325.3 9.9 334.1 12.7
2001-11-12 09:22:12 51°14.673 2°54.785 322.8 11.3 329.4 12.3
2001-11-12 09:23:13 51°14.842 2°54.629 326.5 12 332.5 12.3
2001-11-12 09:24:13 51°15.015 2°54.469 325.2 12.1 330.5 11.3
2001-11-12 09:25:13 51°15.205 2°54.338 342 12.9 346 11.7
2001-11-12 09:26:12 51°15.416 2°54.248 343.2 13.8 345.4 12.4
2001-11-12 09:27:13 51°15.564 2°54.168 321.3 6.3 336.2 13.2
2001-11-12 09:28:13 51°15.656 2°54.078 313.3 8.9 322 13.5
2001-11-12 09:29:13 51°15.822 2°53.893 322.5 13.1 326.4 13.9
2001-11-12 09:30:13 51°16.007 2°53.703 327.8 13.4 331.1 14.6
2001-11-12 09:31:13 51°16.197 2°53.522 324.5 13.3 328.8 14.9
2001-11-12 09:32:13 51°16.388 2°53.342 322.5 13.2 327.8 15
2001-11-12 09:33:13 51°16.577 2°53.16 327 13.4 331 14.7
2001-11-12 09:34:12 51°16.769 2°52.989 325.5 13.4 330.5 13.5
2001-11-12 09:35:13 51°16.958 2°52.793 323.7 13.4 326.8 12.5
2001-11-12 09:36:13 51°17.139 2°52.584 316.8 13.3 319.6 12.4
2001-11-12 09:37:13 51°17.316 2°52.367 323.3 13.4 325.8 13.2
2001-11-12 09:38:13 51°17.504 2°52.172 322.5 13.5 326 13.3
2001-11-12 09:39:13 51°17.685 2°51.962 325.5 13.5 327.8 13.2
2001-11-12 09:40:13 51°17.872 2°51.762 324.8 13.6 328 13.2
2001-11-12 09:41:13 51°18.061 2°51.569 321 13.4 324.9 13.9
2001-11-12 09:42:13 51°18.257 2°51.393 339.5 13.8 340.1 15.1
2001-11-12 09:43:13 51°18.492 2°51.459 22.3 15 21.8 16.1
2001-11-12 09:44:13 51°18.723 2°51.62 17.7 15.1 18.7 16.6
2001-11-12 09:45:13 51°18.964 2°51.663 349.7 14.3 355.2 17
2001-11-12 09:46:13 51°19.177 2°51.542 339 13.7 341.8 18.2
2001-11-12 09:47:13 51°19.377 2°51.376 328.7 13.5 331.9 18
2001-11-12 09:48:13 51°19.577 2°51.215 333 13.6 335.8 17.6
2001-11-12 09:49:13 51°19.791 2°51.095 332.3 13.5 335.4 15.1
2001-11-12 09:50:13 51°19.998 2°50.958 331.7 13.4 334.8 15.6
2001-11-12 09:51:13 51°20.203 2°50.813 336.3 13.5 338.5 16.5
2001-11-12 09:52:13 51°20.424 2°50.715 345.7 14 347.7 19.3
2001-11-12 09:53:13 51°20.645 2°50.611 337 13.8 340 22.4
2001-11-12 09:54:13 51°20.869 2°50.508 343.3 14.1 346.2 25.1
2001-11-12 09:55:13 51°21.093 2°50.402 343.5 14.1 345.3 26.1
2001-11-12 09:56:12 51°21.311 2°50.29 341.7 14.1 343 26.1
2001-11-12 09:57:13 51°21.546 2°50.212 342 14.1 345.4 25.4
2001-11-12 09:58:13 51°21.77 2°50.104 337 13.9 339.7 25.1
2001-11-12 09:59:13 51°21.985 2°49.984 339.3 13.7 342.7 25.8
2001-11-12 10:00:13 51°22.2 2°49.863 342.5 13.8 344.3 26.1
2001-11-12 10:01:13 51°22.424 2°49.777 347 13.9 348.9 25.8
2001-11-12 10:02:12 51°22.643 2°49.686 345.7 14 347.4 20.9
2001-11-12 10:03:13 51°22.874 2°49.598 346.7 14 346.7 18.7
2001-11-12 10:04:13 51°23.104 2°49.518 346.5 14.2 348.1 19.4
2001-11-12 10:05:13 51°23.333 2°49.435 345.8 14.1 346.8 23.2
2001-11-12 10:06:13 51°23.561 2°49.351 345 14.1 347.3 24.1
2001-11-12 10:07:13 51°23.788 2°49.268 347.7 14 348.8 25.3
2001-11-12 10:08:13 51°24.017 2°49.19 346.3 14.1 348 25.5
2001-11-12 10:09:12 51°24.242 2°49.111 346.2 14.1 348.3 25.7
2001-11-12 10:10:13 51°24.474 2°49.032 346.7 14.2 348.7 25.1
2001-11-12 10:11:13 51°24.705 2°48.957 347.5 14.1 348.8 22.5
2001-11-12 10:12:13 51°24.938 2°48.892 349.2 14.2 350.8 25
2001-11-12 10:13:13 51°25.172 2°48.831 349.2 14.4 351.3 27.4
2001-11-12 10:14:13 51°25.41 2°48.787 351.2 14.4 352.9 28
2001-11-12 10:15:13 51°25.644 2°48.733 350.8 14.2 352.3 26.8
2001-11-12 10:16:13 51°25.88 2°48.688 351.8 14.3 353.3 26.3
2001-11-12 10:17:12 51°26.112 2°48.639 352.3 14.3 353 24.6
2001-11-12 10:18:12 51°26.347 2°48.587 352.3 14.3 353.4 20
2001-11-12 10:19:13 51°26.587 2°48.537 352.2 14.2 352.4 24.9
2001-11-12 10:20:12 51°26.82 2°48.493 351.7 14.3 353.4 25.7
2001-11-12 10:21:12 51°27.057 2°48.453 354 14.3 354.8 27.4
2001-11-12 10:22:13 51°27.294 2°48.404 351.3 14.2 352.1 29.1
2001-11-12 10:23:13 51°27.529 2°48.362 352 14.2 353.1 29.5
2001-11-12 10:24:13 51°27.766 2°48.322 352 14.2 353.6 29.5
2001-11-12 10:25:13 51°28.003 2°48.285 352.5 14.5 354.4 33.1
2001-11-12 10:26:13 51°28.242 2°48.246 353.2 14.4 354.5 32.6
2001-11-12 10:27:13 51°28.483 2°48.208 352 14.6 354 33.5
2001-11-12 10:28:13 51°28.721 2°48.168 351.5 14.3 353 33.6
2001-11-12 10:29:13 51°28.959 2°48.133 354 14.3 356.1 31
2001-11-12 10:30:13 51°29.197 2°48.106 354.3 14.4 356.4 28.5
2001-11-12 10:31:13 51°29.434 2°48.072 353.2 14.4 354.7 26.7
2001-11-12 10:32:13 51°29.672 2°48.037 352.8 14.4 355.3 26.5
2001-11-12 10:33:13 51°29.911 2°48.006 352.5 14.5 354.9 27.2
2001-11-12 10:34:13 51°30.15 2°47.97 353 14.4 355.2 27.8
2001-11-12 10:35:13 51°30.391 2°47.942 355.5 14.4 357.2 25.8
2001-11-12 10:36:13 51°30.63 2°47.912 355 14.4 356.7 30.9
2001-11-12 10:37:13 51°30.869 2°47.879 352.8 14.4 355 31
2001-11-12 10:38:13 51°31.107 2°47.847 353.8 14.3 355.6 32.2
2001-11-12 10:39:13 51°31.346 2°47.821 354.7 14.4 357 31.8
2001-11-12 10:40:13 51°31.585 2°47.792 352.5 14.4 354.9 32.1
2001-11-12 10:41:13 51°31.824 2°47.763 352 14.3 354.3 33.6
2001-11-12 10:42:13 51°32.063 2°47.737 354.2 14.4 357.1 33.8
2001-11-12 10:43:13 51°32.301 2°47.713 352.7 14.3 356.1 33.2
2001-11-12 10:44:13 51°32.539 2°47.684 352.8 14.4 355.3 32.6
2001-11-12 10:45:13 51°32.778 2°47.656 354.2 14.4 356.7 32.8
2001-11-12 10:46:13 51°33.017 2°47.629 353.5 14.3 356.1 33.8
2001-11-12 10:47:13 51°33.202 2°47.598 344.2 8 354.5 37.1
2001-11-12 10:48:13 51°33.297 2°47.589 338.7 4.8 1.4 36.5
2001-11-12 10:49:13 51°33.365 2°47.604 338 3.6 9.6 34.3
2001-11-12 10:50:13 51°33.419 2°47.626 338.5 3.3 17.3 33.1
2001-11-12 10:51:13 51°33.469 2°47.655 337.8 3.2 19.2 34.3
2001-11-12 10:52:13 51°33.518 2°47.678 329.8 2.9 15.5 34.8
2001-11-12 10:53:13 51°33.561 2°47.697 316.5 2.5 13.5 33.9
2001-11-12 10:54:13 51°33.598 2°47.705 299.5 2.1 4.8 33.9
2001-11-12 10:55:13 51°33.633 2°47.688 290 2.3 327.4 33.5
2001-11-12 10:56:13 51°33.667 2°47.636 288.7 3.1 310.2 33.2
2001-11-12 10:57:13 51°33.711 2°47.571 306.3 3.9 327.4 33.4
2001-11-12 10:58:13 51°33.782 2°47.539 330.2 4.9 352 32.4
2001-11-12 10:59:13 51°33.858 2°47.511 321 4.6 344.4 33.9
2001-11-12 11:00:13 51°33.928 2°47.472 316 4.4 338 32.8
2001-11-12 11:01:13 51°34.002 2°47.43 323.3 5 344 29.2
2001-11-12 11:02:13 51°34.083 2°47.399 327 4.9 346.4 31.6
2001-11-12 11:03:13 51°34.163 2°47.366 321.5 4.8 341.2 34.3
2001-11-12 11:04:13 51°34.236 2°47.325 319.5 4.7 341.2 30
2001-11-12 11:05:13 51°34.313 2°47.286 320.5 4.7 341.9 35.1
2001-11-12 11:06:13 51°34.386 2°47.24 317.2 4.8 338.3 33
2001-11-12 11:07:13 51°34.464 2°47.223 338.7 4.3 3.2 34.4
2001-11-12 11:08:13 51°34.521 2°47.237 338.2 3 13.8 33
2001-11-12 11:09:13 51°34.562 2°47.27 343.8 2.6 33.9 32.4
2001-11-12 11:10:13 51°34.593 2°47.313 353 2.4 44.7 31.8
2001-11-12 11:11:13 51°34.619 2°47.36 359.2 2.3 49.1 33.7
2001-11-12 11:12:13 51°34.643 2°47.408 1 2.2 52.2 33.6
2001-11-12 11:13:13 51°34.664 2°47.456 8.5 2.3 53.3 32.2
2001-11-12 11:14:13 51°34.687 2°47.505 17.2 2.4 52.3 30.4
2001-11-12 11:15:13 51°34.709 2°47.552 18.8 2.2 52.6 32.9
2001-11-12 11:16:13 51°34.729 2°47.599 20.8 2.1 57.1 34.3
2001-11-12 11:17:13 51°34.749 2°47.647 22.8 2.2 55.3 34.3
2001-11-12 11:18:13 51°34.772 2°47.694 22.7 2.5 45.7 34
2001-11-12 11:19:13 51°34.824 2°47.726 334.7 3.5 6.2 35.4
2001-11-12 11:20:13 51°34.871 2°47.711 285.7 2 343.8 35
2001-11-12 11:21:13 51°34.892 2°47.706 263.7 1 6.8 34.7
2001-11-12 11:22:13 51°34.905 2°47.72 252.5 0.9 48.6 34.1
2001-11-12 11:23:13 51°34.915 2°47.74 245.5 1 51.4 32.8
2001-11-12 11:24:13 51°34.922 2°47.762 236.3 1 67 31.3
2001-11-12 11:25:13 51°34.931 2°47.783 245.5 0.8 50.6 33.3
2001-11-12 11:26:13 51°34.942 2°47.795 263.2 0.9 24.8 34.6
2001-11-12 11:27:13 51°34.958 2°47.805 274 1.2 16.5 34.2
2001-11-12 11:28:13 51°34.974 2°47.814 270.2 1 16.9 34.8
2001-11-12 11:29:13 51°34.988 2°47.821 266.7 0.9 20.7 35.4
2001-11-12 11:30:13 51°35.007 2°47.828 287 1.3 8.1 34.8
2001-11-12 11:31:13 51°35.035 2°47.834 307.3 1.9 9.8 31.3
2001-11-12 11:32:13 51°35.065 2°47.843 298.7 1.7 13.2 35.5
2001-11-12 11:33:13 51°35.092 2°47.858 297.7 1.6 23.8 36.2
2001-11-12 11:34:13 51°35.117 2°47.877 300.3 1.7 25.8 34.9
2001-11-12 11:35:13 51°35.144 2°47.897 301.2 1.7 24 34.2
2001-11-12 11:36:13 51°35.169 2°47.919 295.5 1.7 29.3 31.6
2001-11-12 11:37:13 51°35.196 2°47.945 297.3 2 33.5 32.7
2001-11-12 11:38:13 51°35.222 2°47.973 306.3 2 33 33.9
2001-11-12 11:39:13 51°35.251 2°48.003 317.3 2.1 32.9 33
2001-11-12 11:40:13 51°35.28 2°48.035 321 2.1 35.2 35.3
2001-11-12 11:41:13 51°35.309 2°48.067 322.3 2.2 34.4 35.2
2001-11-12 11:42:13 51°35.341 2°48.1 329.8 2.3 32.4 32.6
2001-11-12 11:43:13 51°35.375 2°48.135 337 2.4 33.2 33.4
2001-11-12 11:44:13 51°35.407 2°48.169 333.7 2.3 33.4 35.9
2001-11-12 11:45:13 51°35.445 2°48.193 321.7 2.8 7.2 34.7
2001-11-12 11:46:14 51°35.489 2°48.166 280.2 2.7 314.3 33
2001-11-12 11:47:13 51°35.475 2°48.117 209.2 3.1 198.5 36.6
2001-11-12 11:48:13 51°35.378 2°48.083 203.5 7.1 194.9 30.4
2001-11-12 11:49:13 51°35.268 2°48.059 198.5 5.8 187.3 34.5
2001-11-12 11:50:13 51°35.183 2°48.041 200 4.8 187.8 32.6
2001-11-12 11:51:13 51°35.109 2°48.014 207 4.5 195.4 33.6
2001-11-12 11:52:13 51°35.037 2°47.991 198.5 4.7 185.2 34.5
2001-11-12 11:53:13 51°34.959 2°47.979 199.2 4.7 185.7 32.2
2001-11-12 11:54:13 51°34.883 2°47.964 200 4.7 187.8 34.5
2001-11-12 11:55:13 51°34.804 2°47.952 197.3 4.7 184.8 29.3
2001-11-12 11:56:13 51°34.725 2°47.94 201 4.7 190.3 32.6
2001-11-12 11:57:13 51°34.649 2°47.911 202 4.7 191.1 32.4
2001-11-12 11:58:13 51°34.571 2°47.892 201.5 4.7 189.7 32.2
2001-11-12 11:59:13 51°34.496 2°47.861 206.2 4.7 197.2 29
2001-11-12 12:00:13 51°34.421 2°47.833 201.3 4.7 190.8 30.6
2001-11-12 12:01:13 51°34.342 2°47.817 195.8 4.9 183.6 33.3
2001-11-12 12:02:13 51°34.26 2°47.814 196.3 4.8 183.4 31.3
2001-11-12 12:03:13 51°34.182 2°47.794 201.5 4.8 190.2 26.1
2001-11-12 12:04:13 51°34.104 2°47.778 198.5 4.8 184.7 31.8
2001-11-12 12:05:13 51°34.024 2°47.765 197.8 4.9 186.3 29.3
2001-11-12 12:06:13 51°33.943 2°47.75 198.5 4.9 187.3 31.4
2001-11-12 12:07:13 51°33.862 2°47.736 197.7 4.8 185.1 32
2001-11-12 12:08:13 51°33.781 2°47.726 198 4.8 185.4 33.4
2001-11-12 12:09:13 51°33.699 2°47.715 195.5 5 182.8 31.6
2001-11-12 12:10:13 51°33.616 2°47.708 195.5 4.9 183.4 32.8
2001-11-12 12:11:13 51°33.534 2°47.7 193.8 5 181.5 33.7
2001-11-12 12:12:13 51°33.448 2°47.705 190.5 5.2 176.6 34.4
2001-11-12 12:13:13 51°33.363 2°47.715 187.3 5.2 173.2 32
2001-11-12 12:14:13 51°33.276 2°47.732 189.2 5.2 174.5 33.1
2001-11-12 12:15:13 51°33.192 2°47.735 196.5 5 184.9 33.3
2001-11-12 12:16:13 51°33.112 2°47.717 201.2 4.9 189.7 35.9
2001-11-12 12:17:13 51°33.029 2°47.703 196.5 5 184.3 36.2
2001-11-12 12:18:13 51°32.945 2°47.696 193.5 5.1 183.1 35.1
2001-11-12 12:19:13 51°32.858 2°47.699 190.2 5.2 178.6 35.9
2001-11-12 12:20:13 51°32.769 2°47.712 187.3 5.4 174.7 32.7
2001-11-12 12:21:13 51°32.68 2°47.731 183.7 5.4 170.4 32.3
2001-11-12 12:22:13 51°32.592 2°47.74 192.2 5.2 179.7 32.9
2001-11-12 12:23:13 51°32.508 2°47.73 196.7 5.1 185.4 30.8
2001-11-12 12:24:13 51°32.42 2°47.727 190.8 5.3 178.9 33.4
2001-11-12 12:25:13 51°32.333 2°47.735 188.3 5.2 176.3 33.9
2001-11-12 12:26:13 51°32.244 2°47.75 183.8 5.4 170.7 29.3
2001-11-12 12:27:13 51°32.155 2°47.778 182.8 5.5 169.8 33.7
2001-11-12 12:28:13 51°32.067 2°47.792 190.7 5.2 177.6 32.8
2001-11-12 12:29:13 51°31.983 2°47.78 196.3 5.2 185 31.3
2001-11-12 12:30:13 51°31.896 2°47.774 191.3 5.2 180.9 33.1
2001-11-12 12:31:13 51°31.808 2°47.784 187 5.3 176.6 31.5
2001-11-12 12:32:13 51°31.72 2°47.79 188.8 5.4 179 33.3
2001-11-12 12:33:13 51°31.63 2°47.798 188.7 5.4 176.3 31.4
2001-11-12 12:34:13 51°31.541 2°47.799 189.5 5.4 178.7 33.5
2001-11-12 12:35:13 51°31.446 2°47.798 189.8 6.4 180.9 32.8
2001-11-12 12:36:13 51°31.323 2°47.794 188.2 7.9 180.7 32.4
2001-11-12 12:37:13 51°31.189 2°47.792 185.8 8.4 179.1 32.1
2001-11-12 12:38:13 51°31.046 2°47.818 180.3 8.7 172.7 30
2001-11-12 12:39:13 51°30.9 2°47.843 183 8.8 176 29.9
2001-11-12 12:40:13 51°30.754 2°47.865 180 9 173.4 29.5
2001-11-12 12:41:13 51°30.608 2°47.89 181.7 8.8 174.4 26.6
2001-11-12 12:42:13 51°30.461 2°47.918 179.2 8.8 171.6 28.8
2001-11-12 12:43:13 51°30.316 2°47.944 183.3 8.8 176.8 26.4
2001-11-12 12:44:13 51°30.169 2°47.968 181.2 8.9 173.3 26.6
2001-11-12 12:45:13 51°30.023 2°47.997 179.7 8.8 172.4 23.3
2001-11-12 12:46:13 51°29.869 2°48.025 180.8 9.5 174.3 20.9
2001-11-12 12:47:13 51°29.71 2°48.054 181.3 9.7 174.3 25.5
2001-11-12 12:48:13 51°29.549 2°48.083 181.3 9.7 173.8 23.4
2001-11-12 12:49:13 51°29.388 2°48.11 184.2 9.8 176 26.1
2001-11-12 12:50:13 51°29.227 2°48.142 178.3 9.7 171.2 26.7
2001-11-12 12:51:13 51°29.065 2°48.168 181.2 9.8 174.7 28.3
2001-11-12 12:52:13 51°28.903 2°48.194 180 9.9 173.7 29.4
2001-11-12 12:53:13 51°28.743 2°48.224 181.2 9.8 173.6 32.6
2001-11-12 12:54:13 51°28.583 2°48.239 181.3 9.7 175.4 33.4
2001-11-12 12:55:13 51°28.422 2°48.269 178.2 9.8 172.1 32.2
2001-11-12 12:56:13 51°28.258 2°48.286 183.8 9.9 177.7 29.7
2001-11-12 12:57:13 51°28.093 2°48.306 182.5 10 176.9 31.5
2001-11-12 12:58:13 51°27.928 2°48.316 180.3 10 174.6 30.7
2001-11-12 12:59:13 51°27.764 2°48.342 184.5 10 178.9 28.2
2001-11-12 13:00:13 51°27.599 2°48.354 178 9.9 172.8 28.2
2001-11-12 13:01:13 51°27.434 2°48.377 183.7 10 177.5 28
2001-11-12 13:02:13 51°27.269 2°48.393 178 10 172.7 27.6
2001-11-12 13:03:13 51°27.148 2°48.405 188.3 5.9 179.8 26.4
2001-11-12 13:04:13 51°27.067 2°48.413 185 4.5 174.1 25.5
2001-11-12 13:05:13 51°27.002 2°48.425 188.2 3.6 175.8 25.3
2001-11-12 13:06:13 51°26.943 2°48.43 188.8 3.4 177.6 25
2001-11-12 13:07:13 51°26.887 2°48.436 190 3.3 177.8 24.5
2001-11-12 13:08:13 51°26.833 2°48.437 192 3.2 178.1 24.1
2001-11-12 13:09:13 51°26.78 2°48.436 193 3.2 180.6 23.8
2001-11-12 13:10:13 51°26.727 2°48.436 192 3.2 182 23.5
2001-11-12 13:11:13 51°26.674 2°48.438 192.2 3.3 178.8 22.8
2001-11-12 13:12:13 51°26.619 2°48.441 190.8 3.3 177.9 22.3
2001-11-12 13:13:13 51°26.566 2°48.443 191 3.2 178.5 23.4
2001-11-12 13:14:13 51°26.513 2°48.446 191.5 3.2 178.6 22.5
2001-11-12 13:15:13 51°26.46 2°48.446 193.2 3.1 179 23.1
2001-11-12 13:16:13 51°26.407 2°48.441 193.3 3.2 182.5 21.5
2001-11-12 13:17:13 51°26.354 2°48.44 192 3.2 180.3 21
2001-11-12 13:18:13 51°26.301 2°48.438 193.8 3 182.4 20.7
2001-11-12 13:19:13 51°26.249 2°48.436 193.3 3.1 180.7 23.3
2001-11-12 13:20:13 51°26.197 2°48.433 192.7 3 180.8 22.4
2001-11-12 13:21:13 51°26.162 2°48.432 198 1.7 179.6 23.2
2001-11-12 13:22:13 51°26.14 2°48.432 203.3 1 170.9 23.1
2001-11-12 13:23:13 51°26.128 2°48.435 208 0.5 166.8 23.9
2001-11-12 13:24:13 51°26.122 2°48.441 211.5 0.4 142.1 24.2
2001-11-12 13:25:13 51°26.12 2°48.448 214.7 0.3 91.1 24.4
2001-11-12 13:26:13 51°26.119 2°48.458 214 0.3 104.8 24.3
2001-11-12 13:27:13 51°26.113 2°48.453 237.5 1 237.5 24.4
2001-11-12 13:28:13 51°26.113 2°48.414 275.8 1.7 289.6 24.1
2001-11-12 13:29:13 51°26.125 2°48.384 281.8 1.1 309.7 24
2001-11-12 13:30:13 51°26.136 2°48.369 279.7 0.7 322.1 23.7
2001-11-12 13:31:13 51°26.145 2°48.363 276.7 0.6 344.3 22.6
2001-11-12 13:32:13 51°26.153 2°48.368 272.7 0.5 34.3 20.7
2001-11-12 13:33:14 51°26.159 2°48.38 260.7 0.7 52.1 20.8
2001-11-12 13:34:13 51°26.164 2°48.396 241.3 0.8 64.5 22.4
2001-11-12 13:35:13 51°26.17 2°48.414 220.7 0.8 61.1 23
2001-11-12 13:36:13 51°26.175 2°48.432 203.8 0.7 63.4 23
2001-11-12 13:37:13 51°26.177 2°48.446 195.2 0.5 96.8 23
2001-11-12 13:38:13 51°26.17 2°48.458 190 0.7 147.3 23
2001-11-12 13:39:13 51°26.156 2°48.468 194.5 1 160.3 23.3
2001-11-12 13:40:13 51°26.139 2°48.471 201.3 1.1 172.5 22.3
2001-11-12 13:41:13 51°26.126 2°48.473 204 0.7 167.1 23.9
2001-11-12 13:42:13 51°26.116 2°48.476 207.7 0.5 163.3 24.2
2001-11-12 13:43:13 51°26.111 2°48.479 210.3 0.3 154.4 24.2
2001-11-12 13:44:13 51°26.108 2°48.483 212.5 0.2 122.9 24.1
2001-11-12 13:45:13 51°26.105 2°48.489 214 0.3 125.3 24.2
2001-11-12 13:46:13 51°26.1 2°48.493 213.8 0.5 175.9 24
2001-11-12 13:47:13 51°26.082 2°48.489 198.2 1.5 184.6 22.7
2001-11-12 13:48:13 51°26.048 2°48.497 176.8 2.7 165.7 24
2001-11-12 13:49:13 51°25.994 2°48.515 179.8 3.7 171.9 23.9
2001-11-12 13:50:13 51°25.927 2°48.516 185.2 4.2 181.3 24
2001-11-12 13:51:13 51°25.856 2°48.522 179.5 4.4 174.5 24.3
2001-11-12 13:52:13 51°25.784 2°48.545 173.5 4.4 165.7 24.5
2001-11-12 13:53:13 51°25.713 2°48.571 174.3 4.3 168.9 24.2
2001-11-12 13:54:13 51°25.641 2°48.59 178.3 4.3 172.6 24.5
2001-11-12 13:55:13 51°25.569 2°48.6 179.7 4.3 174.5 24.7
2001-11-12 13:56:13 51°25.496 2°48.617 176.8 4.4 170.9 25.8
2001-11-12 13:57:13 51°25.423 2°48.637 175.7 4.5 170.4 27.6
2001-11-12 13:58:13 51°25.349 2°48.656 174.2 4.5 169.8 28.8
2001-11-12 13:59:13 51°25.275 2°48.683 171.7 4.6 166.8 28.1
2001-11-12 14:00:13 51°25.2 2°48.711 170.7 4.6 165.5 27.1
2001-11-12 14:01:13 51°25.125 2°48.742 170.5 4.7 165.1 26.3
2001-11-12 14:02:13 51°25.05 2°48.776 167.5 4.7 162.5 25.2
2001-11-12 14:03:13 51°24.976 2°48.807 171 4.7 167.3 24.6
2001-11-12 14:04:13 51°24.9 2°48.83 176.3 4.6 172 23.4
2001-11-12 14:05:13 51°24.824 2°48.842 177.2 4.6 173.6 22.5
2001-11-12 14:06:13 51°24.748 2°48.855 178 4.6 175.1 22.3
2001-11-12 14:07:13 51°24.67 2°48.864 178 4.6 176 21.8
2001-11-12 14:08:13 51°24.594 2°48.881 173.7 4.7 170.5 22.8
2001-11-12 14:09:13 51°24.517 2°48.905 172.3 4.8 169.5 22.6
2001-11-12 14:10:13 51°24.439 2°48.926 174.3 4.8 170.3 22.8
2001-11-12 14:11:13 51°24.362 2°48.943 176 4.7 172.5 21.4
2001-11-12 14:12:13 51°24.286 2°48.969 168 4.7 164.8 22.9
2001-11-12 14:13:13 51°24.209 2°49.002 168.7 4.6 164.4 22.9
2001-11-12 14:14:13 51°24.133 2°49.031 172.5 4.7 168.6 23.3
2001-11-12 14:15:13 51°24.058 2°49.063 167.3 4.7 162.4 23
2001-11-12 14:16:13 51°23.986 2°49.107 162.2 4.6 156.5 22.8
2001-11-12 14:17:13 51°23.914 2°49.151 166.2 4.7 159 22.7
2001-11-12 14:18:13 51°23.841 2°49.187 170.8 4.5 165.3 22.6
2001-11-12 14:19:13 51°23.767 2°49.219 169.8 4.6 164.5 22
2001-11-12 14:20:13 51°23.692 2°49.251 168.7 4.6 163.8 22.6
2001-11-12 14:21:13 51°23.619 2°49.29 166.7 4.6 160.8 22.8
2001-11-12 14:22:13 51°23.545 2°49.331 166.7 4.7 161.3 21.8
2001-11-12 14:23:13 51°23.469 2°49.369 167.5 4.7 162.6 19.9
2001-11-12 14:24:13 51°23.395 2°49.408 166.7 4.7 161.3 20
2001-11-12 14:25:13 51°23.319 2°49.445 167.7 4.6 162.4 20.5
2001-11-12 14:26:13 51°23.242 2°49.479 170 4.7 165.4 19.2
2001-11-12 14:27:13 51°23.165 2°49.504 174.3 4.7 170 18.5
2001-11-12 14:28:13 51°23.086 2°49.523 176.2 4.8 172.3 17.4
2001-11-12 14:29:13 51°23.009 2°49.535 178.7 4.6 176.1 16.6
2001-11-12 14:30:13 51°22.926 2°49.545 179.3 6.4 176.9 13.8
2001-11-12 14:31:13 51°22.747 2°49.592 165 12.9 162.8 16.6
2001-11-12 14:32:13 51°22.53 2°49.64 176.2 13.2 175.2 20.1
2001-11-12 14:33:13 51°22.309 2°49.724 168.7 13.8 167.4 22.2
2001-11-12 14:34:13 51°22.09 2°49.818 165 13.5 164.1 23.2
2001-11-12 14:35:13 51°21.875 2°49.913 165.7 13.4 164.1 22.5
2001-11-12 14:36:13 51°21.658 2°49.994 170 13.3 168.7 21.7
2001-11-12 14:37:13 51°21.441 2°50.082 168.7 13.1 166 22.3
2001-11-12 14:38:13 51°21.294 2°50.096 177.8 6.4 176.8 23
2001-11-12 14:39:13 51°21.21 2°50.112 174 4.5 172.8 23.2
2001-11-12 14:40:13 51°21.142 2°50.127 173 3.9 171.7 23.2
2001-11-12 14:41:13 51°21.082 2°50.142 172.3 3.6 169.5 23.3
2001-11-12 14:42:13 51°21.023 2°50.157 171.3 3.6 168.9 23.2
2001-11-12 14:43:13 51°20.965 2°50.176 170 3.6 167.8 23.1
2001-11-12 14:44:13 51°20.907 2°50.198 169.2 3.5 166.3 23
2001-11-12 14:45:13 51°20.848 2°50.219 170.2 3.6 169.4 22.8
2001-11-12 14:46:13 51°20.788 2°50.238 170.8 3.7 169.7 22.6
2001-11-12 14:47:13 51°20.727 2°50.252 172.7 3.7 172.3 22
2001-11-12 14:48:13 51°20.666 2°50.262 172.7 3.7 174 21.3
2001-11-12 14:49:13 51°20.605 2°50.275 168.8 3.7 169.8 20.5
2001-11-12 14:50:13 51°20.542 2°50.292 169.2 3.8 170.7 19.9
2001-11-12 14:51:13 51°20.48 2°50.306 169.2 3.8 171.9 18.9
2001-11-12 14:52:13 51°20.418 2°50.32 167.3 3.7 171 18.2
2001-11-12 14:53:13 51°20.357 2°50.339 165.8 3.7 170.8 17.4
2001-11-12 14:54:13 51°20.295 2°50.354 168.7 3.7 173.3 16.6
2001-11-12 14:55:13 51°20.233 2°50.367 164.3 3.8 169.2 16.1
2001-11-12 14:56:13 51°20.174 2°50.391 161.5 3.7 164.7 15.6
2001-11-12 14:57:13 51°20.115 2°50.412 163.3 3.6 167.9 15.3
2001-11-12 14:58:13 51°20.056 2°50.435 160.5 3.7 164.6 15.1
2001-11-12 14:59:13 51°19.998 2°50.46 161.8 3.6 165.7 14.2
2001-11-12 15:00:13 51°19.941 2°50.484 161.2 3.5 164.5 13.9
2001-11-12 15:01:13 51°19.883 2°50.506 162.8 3.6 167.4 13.3
2001-11-12 15:02:13 51°19.825 2°50.523 164.5 3.6 170.4 12.6
2001-11-12 15:03:13 51°19.768 2°50.542 161.7 3.5 167.2 12.1
2001-11-12 15:04:13 51°19.711 2°50.56 162.3 3.4 168.9 11.5
2001-11-12 15:05:13 51°19.654 2°50.58 161.2 3.5 166.9 11.3
2001-11-12 15:06:13 51°19.597 2°50.6 159.5 3.5 165.7 11.6
2001-11-12 15:07:13 51°19.54 2°50.621 158.8 3.6 167.3 11.9
2001-11-12 15:08:13 51°19.483 2°50.642 159.3 3.6 167.4 12
2001-11-12 15:09:13 51°19.425 2°50.663 159.2 3.6 167.4 12.1
2001-11-12 15:10:13 51°19.366 2°50.686 159.5 3.6 166.4 12.6
2001-11-12 15:11:13 51°19.306 2°50.711 158.7 3.7 165.7 13.4
2001-11-12 15:12:13 51°19.246 2°50.736 159.2 3.9 164.8 13.8
2001-11-12 15:13:13 51°19.187 2°50.762 160.3 3.7 165.5 13.9
2001-11-12 15:14:13 51°19.127 2°50.788 160 3.8 163.9 14.1
2001-11-12 15:15:13 51°19.067 2°50.811 162.8 3.6 168.1 14.2
2001-11-12 15:16:13 51°19.006 2°50.832 161.3 3.7 167.1 14.3
2001-11-12 15:17:13 51°18.945 2°50.852 162.3 3.8 168.9 14.3
2001-11-12 15:18:13 51°18.883 2°50.872 162.5 3.8 168.7 14.2
2001-11-12 15:19:13 51°18.821 2°50.892 160.8 3.8 167.8 14.1
2001-11-12 15:20:13 51°18.76 2°50.913 162.3 3.4 170 14
2001-11-12 15:21:13 51°18.711 2°50.916 171.7 2.7 179.8 14
2001-11-12 15:22:13 51°18.674 2°50.912 177.2 2.2 188.1 13.8
2001-11-12 15:23:13 51°18.642 2°50.902 181.8 1.8 193.9 13.7
2001-11-12 15:24:13 51°18.614 2°50.89 185 1.7 194.7 13.6
2001-11-12 15:25:13 51°18.589 2°50.877 187.5 1.6 196 13.6
2001-11-12 15:26:13 51°18.565 2°50.865 189.5 1.5 197.9 13.5
2001-11-12 15:27:13 51°18.543 2°50.853 190.2 1.4 197.2 13.5
2001-11-12 15:28:13 51°18.523 2°50.84 189.8 1.3 199.7 13.4
2001-11-12 15:29:13 51°18.504 2°50.827 188.3 1.2 203.2 13.4
2001-11-12 15:30:13 51°18.486 2°50.815 187.7 1.2 197.8 13.3
2001-11-12 15:31:13 51°18.47 2°50.802 184.3 1.1 201.7 13.3
2001-11-12 15:32:13 51°18.452 2°50.791 182.8 1.1 202 13.2
2001-11-12 15:33:13 51°18.435 2°50.778 185.2 1.2 201.3 13.3
2001-11-12 15:34:13 51°18.419 2°50.766 184.2 1.1 202.2 13.2
2001-11-12 15:35:13 51°18.402 2°50.755 183.2 1.2 202.6 13.1
2001-11-12 15:36:13 51°18.385 2°50.743 183.2 1.1 204.7 13
2001-11-12 15:37:13 51°18.368 2°50.73 184.2 1.1 205.5 13.1
2001-11-12 15:38:13 51°18.352 2°50.718 184.2 1 203.2 13
2001-11-12 15:39:13 51°18.335 2°50.706 183.7 1 206.9 13
2001-11-12 15:40:13 51°18.318 2°50.694 182.8 1.1 203.4 13
2001-11-12 15:41:13 51°18.3 2°50.682 182.8 1.1 203.4 12.9
2001-11-12 15:42:13 51°18.283 2°50.669 184.5 1.1 202.6 12.8
2001-11-12 15:43:13 51°18.255 2°50.66 159.8 2.3 179.5 12.7
2001-11-12 15:44:13 51°18.224 2°50.684 107.8 1.8 135.4 12.6
2001-11-12 15:45:13 51°18.21 2°50.711 87.8 1 123.8 12.5
2001-11-12 15:46:13 51°18.205 2°50.729 69.5 0.7 91.6 12.4
2001-11-12 15:47:13 51°18.208 2°50.753 65.2 1.1 75.3 12.5
2001-11-12 15:48:13 51°18.215 2°50.786 61.5 1.4 67.2 12.5
2001-11-12 15:49:13 51°18.225 2°50.819 58 1.4 61.7 12.4
2001-11-12 15:50:13 51°18.236 2°50.851 57.7 1.3 63.4 12.5
2001-11-12 15:51:13 51°18.248 2°50.882 58.7 1.4 59.3 12.5
2001-11-12 15:52:13 51°18.257 2°50.916 62.7 1.4 70 12.5
2001-11-12 15:53:13 51°18.266 2°50.951 62.8 1.4 69.9 12.4
2001-11-12 15:54:13 51°18.275 2°50.982 52 1.3 46.6 12.4
2001-11-12 15:55:13 51°18.364 2°50.92 327.3 10.2 317.9 12.7
2001-11-12 15:56:13 51°18.483 2°50.642 308.8 13.6 300.6 13.2
2001-11-12 15:57:13 51°18.581 2°50.309 303.7 14 296.1 13.3
2001-11-12 15:58:13 51°18.683 2°49.977 312.5 13.8 303.8 12.1
2001-11-12 15:59:13 51°18.79 2°49.652 297 14 290.6 9.8
2001-11-12 16:00:13 51°18.897 2°49.327 318.2 13.8 309.9 10.6
2001-11-12 16:01:13 51°18.995 2°48.989 297.7 14.2 290.6 11.4
2001-11-12 16:02:13 51°19.094 2°48.645 304.7 14.2 296.9 14.1
2001-11-12 16:03:13 51°19.208 2°48.318 312.2 13.9 303.9 16.6
2001-11-12 16:04:13 51°19.31 2°48.075 309.7 7.7 299.9 18.4
2001-11-12 16:05:13 51°19.261 2°47.904 199.2 7.3 204 18.9
2001-11-12 16:06:13 51°19.192 2°47.971 96.8 3.5 109.7 18.1
2001-11-12 16:07:13 51°19.185 2°47.997 62.3 0.7 88.9 17.9
2001-11-12 16:08:13 51°19.189 2°48.022 62 1.3 70.9 17.8
2001-11-12 16:09:13 51°19.197 2°48.062 70.5 1.7 78.1 17.7
2001-11-12 16:10:13 51°19.197 2°48.112 85.2 2 97.7 17.6
2001-11-12 16:11:13 51°19.195 2°48.163 76 1.8 86.9 17.3
2001-11-12 16:12:13 51°19.2 2°48.207 68.2 1.6 76.8 17.3
2001-11-12 16:13:13 51°19.205 2°48.243 67 1.3 74.2 17.2
2001-11-12 16:14:13 51°19.21 2°48.275 62.8 1.2 71.6 17
2001-11-12 16:15:13 51°19.217 2°48.302 59 1 67.6 17
2001-11-12 16:16:13 51°19.224 2°48.327 62.5 1 69.3 16.8
2001-11-12 16:17:13 51°19.229 2°48.352 66.5 1 79.9 16.7
2001-11-12 16:18:13 51°19.231 2°48.38 69 1.1 81.3 16.7
2001-11-12 16:19:14 51°19.232 2°48.41 72.3 1.4 82.8 16.5
2001-11-12 16:20:13 51°19.194 2°48.567 115.2 10.4 118.4 15.4
2001-11-12 16:21:13 51°19.106 2°48.858 117.8 12.8 120.7 13.5
2001-11-12 16:22:13 51°19.028 2°49.167 116.8 12.6 118.4 10.7
2001-11-12 16:23:14 51°18.895 2°49.451 122 13 124.8 10.1
2001-11-12 16:24:14 51°18.779 2°49.744 119.5 13.5 122.4 10.6
2001-11-12 16:25:14 51°18.645 2°50.03 122.7 13.2 125.4 12.5
2001-11-12 16:26:14 51°18.509 2°50.313 127.8 13.5 130.8 13.3
2001-11-12 16:27:14 51°18.363 2°50.585 125.8 13.5 129.4 13.1
2001-11-12 16:28:14 51°18.224 2°50.862 130.3 13.2 132.9 12.2
2001-11-12 16:29:14 51°18.074 2°51.125 128.7 13.2 131 11
2001-11-12 16:30:14 51°17.917 2°51.38 132.2 13.6 135.3 9.6
2001-11-12 16:31:14 51°17.76 2°51.633 130.7 13.6 133.4 9
2001-11-12 16:32:14 51°17.6 2°51.888 132.7 13.8 135.5 9.4
2001-11-12 16:33:14 51°17.411 2°52.101 148.8 14.1 150.6 9.4
2001-11-12 16:34:14 51°17.206 2°52.284 147.8 14.5 150.5 9.2
2001-11-12 16:35:14 51°17.003 2°52.464 149.3 14.1 151 8.5
2001-11-12 16:36:14 51°16.792 2°52.622 152.3 14.2 153.9 8.9
2001-11-12 16:37:14 51°16.59 2°52.81 148.5 13.5 149.1 10.3
2001-11-12 16:38:14 51°16.437 2°52.939 149.7 8.9 153.9 11.3
2001-11-12 16:39:14 51°16.301 2°53.045 149 11.3 152.3 11.5
2001-11-12 16:40:14 51°16.108 2°53.209 150.3 13.6 153.3 11.3
2001-11-12 16:41:14 51°15.909 2°53.379 150 13.2 152.5 10.8
2001-11-12 16:42:14 51°15.71 2°53.557 147 13.4 149.8 10
2001-11-12 16:43:14 51°15.515 2°53.738 147.3 13.4 150.4 9.4
2001-11-12 16:44:14 51°15.319 2°53.921 144.7 13.5 148.4 8.5
2001-11-12 16:45:14 51°15.132 2°54.11 148.2 12.8 151.6 7.6
2001-11-12 16:46:14 51°14.947 2°54.288 143.8 12.2 146.4 7.2
2001-11-12 16:47:14 51°14.777 2°54.487 136.5 12.5 139.7 8.5
2001-11-12 16:48:14 51°14.619 2°54.684 136.7 11.9 139.7 8.5
2001-11-12 16:49:14 51°14.473 2°54.896 134.5 12.2 135.2 8.7
2001-11-12 16:50:14 51°14.339 2°55.126 132.5 12 129.7 8.8
2001-11-12 16:51:14 51°14.208 2°55.345 143.7 11.3 138 8.8
2001-11-12 16:52:15 51°14.062 2°55.464 159.5 7.7 156.9 8.9
2001-11-12 16:53:19 51°13.945 2°55.551 158 7.7 154.8 8.9
2001-11-12 16:54:19 51°13.824 2°55.638 157 7.9 154.3 8.9
2001-11-12 16:55:19 51°13.725 2°55.768 131.8 7.9 130.6 8.9
2001-11-12 16:56:19 51°13.65 2°55.941 127.2 7.5 124.1 8.9
2001-11-12 16:57:19 51°13.602 2°56.053 125.2 4.1 122.4 -999
2001-11-12 16:58:19 51°13.575 2°56.134 119.3 3.3 116.5 -999
2001-11-12 16:59:19 51°13.553 2°56.214 114.5 3.1 111.1 -999
2001-11-12 17:00:19 51°13.523 2°56.28 147.3 2.9 143.4 -999
2001-11-12 17:01:19 51°13.517 2°56.285 170 0.6 331.2 -999
2001-11-12 17:02:19 51°13.514 2°56.279 193.7 0.2 239.9 -999
2001-11-12 17:03:19 51°13.515 2°56.27 225.5 0.4 247.4 -999
2001-11-12 17:04:19 51°13.52 2°56.273 250.8 0.2 334.9 -999
2001-11-12 17:05:19 51°13.527 2°56.226 297.3 2 294.4 -999
2001-11-12 17:06:19 51°13.55 2°56.155 305 3.1 300.6 -999
2001-11-12 17:07:19 51°13.576 2°56.094 313.8 2.7 308.2 -999
2001-11-12 17:08:19 51°13.606 2°56.041 317 2.6 312.2 -999
2001-11-12 17:09:19 51°13.636 2°55.994 319.8 2.5 319.1 -999
2001-11-12 17:10:19 51°13.662 2°55.952 314.8 2 311.8 -999
2001-11-12 17:11:19 51°13.679 2°55.917 311.5 1.5 306.8 -999
2001-11-12 17:12:19 51°13.684 2°55.907 315.8 0.4 317 -999
2001-11-12 17:13:19 51°13.686 2°55.906 320.5 0.2 2.6 -999
2001-11-12 17:14:19 51°13.686 2°55.907 316   80.3 -999